createdAt,value
2019-04-21T00:01:52.403Z,-1.65
2019-04-21T00:04:30.826Z,-1.64
2019-04-21T00:07:08.650Z,-1.64
2019-04-21T00:09:39.707Z,-1.62
2019-04-21T00:12:02.624Z,-1.67
2019-04-21T00:14:22.541Z,-1.70
2019-04-21T00:16:48.418Z,-1.69
2019-04-21T00:22:08.586Z,-1.71
2019-04-21T00:24:37.441Z,-1.73
2019-04-21T00:27:12.469Z,-1.71
2019-04-21T00:29:51.824Z,-1.67
2019-04-21T00:32:01.793Z,-1.65
2019-04-21T00:34:17.715Z,-1.68
2019-04-21T00:36:55.924Z,-1.68
2019-04-21T00:39:43.340Z,-2.30
2019-04-21T00:41:59.633Z,-1.71
2019-04-21T00:44:22.499Z,-1.73
2019-04-21T00:49:55.420Z,-1.76
2019-04-21T00:55:45.886Z,-1.77
2019-04-21T01:03:26.124Z,-1.87
2019-04-21T01:06:14.386Z,-1.88
2019-04-21T01:08:23.477Z,-1.87
2019-04-21T01:13:27.366Z,-1.83
2019-04-21T01:15:54.673Z,-1.85
2019-04-21T01:18:20.664Z,-1.84
2019-04-21T01:20:27.584Z,-1.84
2019-04-21T01:22:53.939Z,-1.83
2019-04-21T01:25:29.360Z,-2.39
2019-04-21T01:28:03.940Z,-1.78
2019-04-21T01:30:34.683Z,-1.77
2019-04-21T01:33:07.592Z,-1.74
2019-04-21T01:35:35.456Z,-1.73
2019-04-21T01:38:03.090Z,-1.71
2019-04-21T01:42:56.795Z,-1.70
2019-04-21T01:45:27.957Z,-1.68
2019-04-21T01:47:52.404Z,-1.72
2019-04-21T01:53:43.530Z,-1.72
2019-04-21T01:56:14.849Z,-1.70
2019-04-21T02:03:52.915Z,-1.60
2019-04-21T02:06:22.783Z,-1.59
2019-04-21T02:08:41.553Z,-1.56
2019-04-21T02:11:17.566Z,-1.53
2019-04-21T02:13:46.807Z,-1.53
2019-04-21T02:16:12.514Z,-1.51
2019-04-21T02:18:42.470Z,-1.52
2019-04-21T02:20:53.878Z,-1.50
2019-04-21T02:23:39.554Z,-1.49
2019-04-21T02:26:03.756Z,-1.49
2019-04-21T02:28:36.869Z,-1.43
2019-04-21T02:38:36.290Z,-1.01
2019-04-21T02:41:01.487Z,-0.75
2019-04-21T02:43:24.927Z,-0.50
2019-04-21T02:48:32.937Z,-0.13
2019-04-21T02:51:17.531Z,0.05
2019-04-21T02:53:32.719Z,0.33
2019-04-21T02:55:56.372Z,0.48
2019-04-21T02:58:44.435Z,0.69
2019-04-21T03:01:37.792Z,0.84
2019-04-21T03:06:54.108Z,0.91
2019-04-21T03:11:48.623Z,1.39
2019-04-21T03:14:20.615Z,1.54
2019-04-21T03:16:55.653Z,1.54
2019-04-21T03:19:15.981Z,1.60
2019-04-21T03:21:40.457Z,1.63
2019-04-21T03:24:12.106Z,1.75
2019-04-21T03:29:05.831Z,1.93
2019-04-21T03:43:50.297Z,1.92
2019-04-21T03:46:23.361Z,1.97
2019-04-21T03:51:23.491Z,2.03
2019-04-21T03:53:47.498Z,2.08
2019-04-21T03:56:16.102Z,2.13
2019-04-21T03:58:55.860Z,2.24
2019-04-21T04:01:21.921Z,2.29
2019-04-21T04:15:22.831Z,2.80
2019-04-21T04:17:26.647Z,2.91
2019-04-21T04:20:01.499Z,3.00
2019-04-21T04:22:52.630Z,3.10
2019-04-21T04:25:19.295Z,3.19
2019-04-21T04:30:12.448Z,3.43
2019-04-21T04:32:36.774Z,3.52
2019-04-21T04:35:26.346Z,3.60
2019-04-21T04:37:38.345Z,3.72
2019-04-21T04:47:59.914Z,4.36
2019-04-21T04:50:22.543Z,4.58
2019-04-21T04:52:45.726Z,4.84
2019-04-21T04:55:22.063Z,4.98
2019-04-21T04:57:57.711Z,4.99
2019-04-21T05:00:19.865Z,5.04
2019-04-21T05:05:15.341Z,5.19
2019-04-21T05:07:42.797Z,5.31
2019-04-21T05:10:47.751Z,5.57
2019-04-21T05:12:29.424Z,6.06
2019-04-21T05:15:09.724Z,6.55
2019-04-21T05:17:46.362Z,7.02
2019-04-21T05:20:11.614Z,7.48
2019-04-21T05:22:21.953Z,7.44
2019-04-21T05:24:46.581Z,7.47
2019-04-21T05:27:29.356Z,7.61
2019-04-21T05:30:24.809Z,7.79
2019-04-21T05:33:05.657Z,7.82
2019-04-21T05:35:51.926Z,7.80
2019-04-21T05:38:38.948Z,8.01
2019-04-21T05:41:01.217Z,8.39
2019-04-21T05:43:38.803Z,8.78
2019-04-21T05:46:04.425Z,9.13
2019-04-21T05:48:54.785Z,9.14
2019-04-21T05:54:23.018Z,8.88
2019-04-21T05:56:51.641Z,8.77
2019-04-21T05:59:14.920Z,8.85
2019-04-21T06:01:47.090Z,8.99
2019-04-21T06:07:21.288Z,9.39
2019-04-21T06:12:44.896Z,10.10
2019-04-21T06:15:12.279Z,9.97
2019-04-21T06:20:05.639Z,9.99
2019-04-21T06:22:28.884Z,9.82
2019-04-21T06:25:33.942Z,9.65
2019-04-21T06:27:32.486Z,9.53
2019-04-21T06:30:01.884Z,9.49
2019-04-21T06:32:38.515Z,9.20
2019-04-21T06:37:56.465Z,8.95
2019-04-21T06:40:24.013Z,8.79
2019-04-21T06:42:43.214Z,8.74
2019-04-21T06:45:27.584Z,8.67
2019-04-21T06:50:00.481Z,8.72
2019-04-21T06:52:45.947Z,8.57
2019-04-21T06:55:09.894Z,8.68
2019-04-21T06:59:55.740Z,9.02
2019-04-21T07:04:55.994Z,9.23
2019-04-21T07:07:22.701Z,9.27
2019-04-21T07:09:52.958Z,9.37
2019-04-21T07:12:12.571Z,9.66
2019-04-21T07:14:41.856Z,9.99
2019-04-21T07:20:12.753Z,10.18
2019-04-21T07:22:41.504Z,10.47
2019-04-21T07:25:08.836Z,10.90
2019-04-21T07:27:41.281Z,10.76
2019-04-21T07:30:06.628Z,10.53
2019-04-21T07:32:36.073Z,10.34
2019-04-21T07:35:03.889Z,10.24
2019-04-21T07:37:33.238Z,10.13
2019-04-21T07:39:55.003Z,10.20
2019-04-21T07:42:20.737Z,10.21
2019-04-21T07:44:45.953Z,10.20
2019-04-21T07:50:35.081Z,10.18
2019-04-21T07:53:24.293Z,10.23
2019-04-21T07:58:13.012Z,10.31
2019-04-21T08:00:51.279Z,10.31
2019-04-21T08:03:12.868Z,10.59
2019-04-21T08:05:43.981Z,10.72
2019-04-21T08:07:59.695Z,10.93
2019-04-21T08:10:33.295Z,10.95
2019-04-21T08:13:02.776Z,10.65
2019-04-21T08:15:49.523Z,10.12
2019-04-21T08:17:59.722Z,10.20
2019-04-21T08:20:24.700Z,10.08
2019-04-21T08:25:52.995Z,9.85
2019-04-21T08:28:13.901Z,9.91
2019-04-21T08:30:43.065Z,10.01
2019-04-21T08:33:16.213Z,10.04
2019-04-21T08:36:11.664Z,10.04
2019-04-21T08:38:08.766Z,10.05
2019-04-21T08:42:59.883Z,10.35
2019-04-21T08:45:35.938Z,10.18
2019-04-21T08:48:04.320Z,10.23
2019-04-21T08:50:47.635Z,10.18
2019-04-21T08:53:03.590Z,10.08
2019-04-21T09:01:03.885Z,10.80
2019-04-21T09:03:44.835Z,11.08
2019-04-21T09:06:13.828Z,11.09
2019-04-21T09:08:43.521Z,11.03
2019-04-21T09:11:08.164Z,11.29
2019-04-21T09:13:37.143Z,11.28
2019-04-21T09:18:32.438Z,11.70
2019-04-21T09:21:07.542Z,11.76
2019-04-21T09:23:36.569Z,11.84
2019-04-21T09:26:05.523Z,11.93
2019-04-21T09:28:26.951Z,11.97
2019-04-21T09:30:49.948Z,11.86
2019-04-21T09:33:09.360Z,11.93
2019-04-21T09:36:02.616Z,11.93
2019-04-21T09:38:34.353Z,11.84
2019-04-21T09:40:56.101Z,11.82
2019-04-21T09:43:30.800Z,11.82
2019-04-21T09:45:54.219Z,11.56
2019-04-21T09:51:11.068Z,11.34
2019-04-21T09:53:47.279Z,11.33
2019-04-21T09:56:16.634Z,11.21
2019-04-21T10:01:52.221Z,11.05
2019-04-21T10:04:07.695Z,10.88
2019-04-21T10:06:56.258Z,10.93
2019-04-21T10:09:22.607Z,10.76
2019-04-21T10:11:48.889Z,10.61
2019-04-21T10:14:15.377Z,10.41
2019-04-21T10:17:02.798Z,10.31
2019-04-21T10:19:44.137Z,10.23
2019-04-21T10:22:10.674Z,10.31
2019-04-21T10:24:38.246Z,10.29
2019-04-21T10:27:25.446Z,10.25
2019-04-21T10:29:52.246Z,10.13
2019-04-21T10:32:22.227Z,9.91
2019-04-21T10:34:49.437Z,9.79
2019-04-21T10:37:16.745Z,9.71
2019-04-21T10:39:43.117Z,9.64
2019-04-21T10:42:09.363Z,9.58
2019-04-21T10:44:36.771Z,9.43
2019-04-21T10:50:06.647Z,9.29
2019-04-21T10:52:53.232Z,9.17
2019-04-21T10:55:36.730Z,8.95
2019-04-21T10:58:08.695Z,8.87
2019-04-21T11:00:36.445Z,8.87
2019-04-21T11:03:24.765Z,8.93
2019-04-21T11:08:32.345Z,8.98
2019-04-21T11:10:54.380Z,9.16
2019-04-21T11:13:20.830Z,9.15
2019-04-21T11:15:47.532Z,9.13
2019-04-21T11:21:09.276Z,9.21
2019-04-21T11:23:35.582Z,8.36
2019-04-21T11:26:02.273Z,9.42
2019-04-21T11:28:31.202Z,9.35
2019-04-21T11:30:58.264Z,9.23
2019-04-21T11:33:24.958Z,9.27
2019-04-21T11:35:53.235Z,9.04
2019-04-21T11:38:59.781Z,8.87
2019-04-21T11:41:07.730Z,8.70
2019-04-21T11:43:35.140Z,8.64
2019-04-21T11:46:02.565Z,8.51
2019-04-21T11:48:30.534Z,8.41
2019-04-21T11:50:57.296Z,8.26
2019-04-21T11:53:25.271Z,8.19
2019-04-21T11:55:53.212Z,8.23
2019-04-21T11:58:19.792Z,8.29
2019-04-21T12:03:20.800Z,8.09
2019-04-21T12:05:48.387Z,8.14
2019-04-21T12:08:23.331Z,7.66
2019-04-21T12:10:42.793Z,8.29
2019-04-21T12:13:10.049Z,8.27
2019-04-21T12:15:37.194Z,8.18
2019-04-21T12:18:03.835Z,8.29
2019-04-21T12:20:53.719Z,8.39
2019-04-21T12:23:20.463Z,8.29
2019-04-21T12:28:35.885Z,8.24
2019-04-21T12:34:09.911Z,7.99
2019-04-21T12:36:36.147Z,7.94
2019-04-21T12:39:44.978Z,7.90
2019-04-21T12:42:32.339Z,7.72
2019-04-21T12:44:59.368Z,7.80
2019-04-21T12:47:27.968Z,7.77
2019-04-21T12:50:17.044Z,7.89
2019-04-21T12:53:03.447Z,7.82
2019-04-21T12:55:35.216Z,7.83
2019-04-21T12:57:59.418Z,7.75
2019-04-21T13:00:27.146Z,7.74
2019-04-21T13:02:56.085Z,7.68
2019-04-21T13:05:23.590Z,7.71
2019-04-21T13:07:50.955Z,7.84
2019-04-21T13:10:40.241Z,7.90
2019-04-21T13:13:08.023Z,7.92
2019-04-21T13:15:35.584Z,7.91
2019-04-21T13:18:03.027Z,8.05
2019-04-21T13:20:29.542Z,8.01
2019-04-21T13:22:55.823Z,7.93
2019-04-21T13:25:23.513Z,7.82
2019-04-21T13:27:50.229Z,7.71
2019-04-21T13:30:38.149Z,7.59
2019-04-21T13:33:05.108Z,7.56
2019-04-21T13:35:33.198Z,7.53
2019-04-21T13:38:00.730Z,7.61
2019-04-21T13:41:01.109Z,7.75
2019-04-21T13:43:15.038Z,7.62
2019-04-21T13:45:41.734Z,7.65
2019-04-21T13:48:10.570Z,7.71
2019-04-21T13:50:37.339Z,7.65
2019-04-21T13:53:05.170Z,7.65
2019-04-21T13:55:31.860Z,7.64
2019-04-21T13:57:58.843Z,7.70
2019-04-21T14:00:27.492Z,7.72
2019-04-21T14:05:32.691Z,7.62
2019-04-21T14:08:00.977Z,7.56
2019-04-21T14:10:29.253Z,7.46
2019-04-21T14:12:56.542Z,7.47
2019-04-21T14:15:24.112Z,7.53
2019-04-21T14:17:50.997Z,7.47
2019-04-21T14:20:17.554Z,7.37
2019-04-21T14:22:44.272Z,7.40
2019-04-21T14:25:12.199Z,7.42
2019-04-21T14:27:38.612Z,7.31
2019-04-21T14:30:26.445Z,7.33
2019-04-21T14:32:54.011Z,7.33
2019-04-21T14:35:21.006Z,7.31
2019-04-21T14:37:48.790Z,7.31
2019-04-21T14:40:22.523Z,7.31
2019-04-21T14:42:45.272Z,7.25
2019-04-21T14:45:56.736Z,7.11
2019-04-21T14:48:43.496Z,7.04
2019-04-21T14:54:36.874Z,6.88
2019-04-21T15:00:33.315Z,6.73
2019-04-21T15:03:01.428Z,6.78
2019-04-21T15:05:29.382Z,6.66
2019-04-21T15:07:57.285Z,6.59
2019-04-21T15:12:59.377Z,6.39
2019-04-21T15:15:27.817Z,6.30
2019-04-21T15:17:55.705Z,6.27
2019-04-21T15:20:24.913Z,4.64
2019-04-21T15:22:52.525Z,6.29
2019-04-21T15:25:18.756Z,6.30
2019-04-21T15:28:05.090Z,6.23
2019-04-21T15:30:32.460Z,6.19
2019-04-21T15:33:00.397Z,6.19
2019-04-21T15:35:28.914Z,6.12
2019-04-21T15:37:55.956Z,6.00
2019-04-21T15:40:33.722Z,5.92
2019-04-21T15:42:50.586Z,5.81
2019-04-21T15:45:17.107Z,5.81
2019-04-21T15:47:44.196Z,5.78
2019-04-21T15:55:59.633Z,5.64
2019-04-21T15:58:46.382Z,5.61
2019-04-21T16:04:02.146Z,5.35
2019-04-21T16:06:29.656Z,5.22
2019-04-21T16:08:59.232Z,5.07
2019-04-21T16:11:25.964Z,5.12
2019-04-21T16:14:14.376Z,5.11
2019-04-21T16:16:41.253Z,5.11
2019-04-21T16:19:08.114Z,5.05
2019-04-21T16:21:40.084Z,4.96
2019-04-21T16:24:04.583Z,4.97
2019-04-21T16:26:32.897Z,4.89
2019-04-21T16:29:00.153Z,4.83
2019-04-21T16:31:26.415Z,4.82
2019-04-21T16:33:52.657Z,4.76
2019-04-21T16:36:20.074Z,4.71
2019-04-21T16:38:47.284Z,4.68
2019-04-21T16:41:14.228Z,4.63
2019-04-21T16:44:03.010Z,4.59
2019-04-21T16:46:31.526Z,4.56
2019-04-21T16:48:58.242Z,4.55
2019-04-21T16:51:24.488Z,4.52
2019-04-21T16:56:41.689Z,4.48
2019-04-21T17:01:56.540Z,4.37
2019-04-21T17:04:24.462Z,4.35
2019-04-21T17:06:53.226Z,4.33
2019-04-21T17:09:20.917Z,4.32
2019-04-21T17:11:49.288Z,4.30
2019-04-21T17:14:32.939Z,4.29
2019-04-21T17:17:09.904Z,4.30
2019-04-21T17:19:20.173Z,4.29
2019-04-21T17:21:41.647Z,4.29
2019-04-21T17:24:10.534Z,4.28
2019-04-21T17:26:39.449Z,4.26
2019-04-21T17:29:06.843Z,4.25
2019-04-21T17:31:34.478Z,4.22
2019-04-21T17:34:08.599Z,3.10
2019-04-21T17:42:11.738Z,4.14
2019-04-21T17:44:25.711Z,4.12
2019-04-21T17:46:58.579Z,4.11
2019-04-21T17:49:21.167Z,4.10
2019-04-21T17:52:11.277Z,4.07
2019-04-21T17:55:07.573Z,4.06
2019-04-21T17:57:42.070Z,4.03
2019-04-21T18:00:14.128Z,3.96
2019-04-21T18:02:44.063Z,3.92
2019-04-21T18:05:12.755Z,3.90
2019-04-21T18:07:35.058Z,3.87
2019-04-21T18:10:07.777Z,3.85
2019-04-21T18:12:28.062Z,3.85
2019-04-21T18:15:21.974Z,3.85
2019-04-21T18:17:34.295Z,3.85
2019-04-21T18:20:01.802Z,3.84
2019-04-21T18:22:50.969Z,3.82
2019-04-21T18:27:50.603Z,3.82
2019-04-21T18:30:38.396Z,3.81
2019-04-21T18:33:11.960Z,3.78
2019-04-21T18:35:55.060Z,3.78
2019-04-21T18:39:02.677Z,3.78
2019-04-21T18:44:28.003Z,3.74
2019-04-21T18:47:11.366Z,3.75
2019-04-21T18:52:42.682Z,3.03
2019-04-21T18:55:05.241Z,3.65
2019-04-21T18:57:30.567Z,3.64
2019-04-21T18:59:51.304Z,3.62
2019-04-21T19:02:22.144Z,3.60
2019-04-21T19:04:48.319Z,3.59
2019-04-21T19:07:29.946Z,3.59
2019-04-21T19:10:14.862Z,3.58
2019-04-21T19:12:36.636Z,3.58
2019-04-21T19:14:55.029Z,3.58
2019-04-21T19:18:11.188Z,2.92
2019-04-21T19:20:02.065Z,3.53
2019-04-21T19:22:21.732Z,3.50
2019-04-21T19:24:54.901Z,3.39
2019-04-21T19:29:52.184Z,3.36
2019-04-21T19:34:29.548Z,3.38
2019-04-21T19:37:03.568Z,3.34
2019-04-21T19:39:36.175Z,3.34
2019-04-21T19:42:00.774Z,3.37
2019-04-21T19:44:33.568Z,3.37
2019-04-21T19:47:03.903Z,3.38
2019-04-21T19:49:32.377Z,3.36
2019-04-21T19:51:53.285Z,3.35
2019-04-21T19:54:18.744Z,3.35
2019-04-21T19:56:38.544Z,3.34
2019-04-21T19:59:06.946Z,3.35
2019-04-21T20:01:35.123Z,3.34
2019-04-21T20:04:02.947Z,3.34
2019-04-21T20:06:45.402Z,3.32
2019-04-21T20:09:19.947Z,3.31
2019-04-21T20:11:42.017Z,3.30
2019-04-21T20:14:37.678Z,3.30
2019-04-21T20:16:42.785Z,3.30
2019-04-21T20:18:57.288Z,3.31
2019-04-21T20:21:20.661Z,3.31
2019-04-21T20:23:47.395Z,3.31
2019-04-21T20:26:15.533Z,3.32
2019-04-21T20:28:54.681Z,3.32
2019-04-21T20:31:26.453Z,3.29
2019-04-21T20:34:01.062Z,3.28
2019-04-21T20:36:26.771Z,3.25
2019-04-21T20:38:47.058Z,3.25
2019-04-21T20:41:19.646Z,3.25
2019-04-21T20:43:45.882Z,3.22
2019-04-21T20:46:12.306Z,3.20
2019-04-21T20:51:31.066Z,3.22
2019-04-21T20:53:50.924Z,3.21
2019-04-21T20:56:17.171Z,3.23
2019-04-21T20:58:54.014Z,3.21
2019-04-21T21:04:21.599Z,3.22
2019-04-21T21:07:01.995Z,3.21
2019-04-21T21:09:17.988Z,3.22
2019-04-21T21:12:09.565Z,3.24
2019-04-21T21:14:25.181Z,3.22
2019-04-21T21:16:51.840Z,3.22
2019-04-21T21:19:24.568Z,3.22
2019-04-21T21:21:59.787Z,3.21
2019-04-21T21:24:44.727Z,3.21
2019-04-21T21:27:05.885Z,3.21
2019-04-21T21:29:45.167Z,3.21
2019-04-21T21:32:08.575Z,3.20
2019-04-21T21:34:33.081Z,3.03
2019-04-21T21:36:57.640Z,3.12
2019-04-21T21:39:23.368Z,3.09
2019-04-21T21:41:44.161Z,3.06
2019-04-21T21:44:10.527Z,3.06
2019-04-21T21:46:44.561Z,3.03
2019-04-21T21:49:07.569Z,3.04
2019-04-21T21:51:41.149Z,3.04
2019-04-21T21:53:57.121Z,3.04
2019-04-21T21:56:24.623Z,3.01
2019-04-21T21:58:52.010Z,2.98
2019-04-21T22:01:46.623Z,2.99
2019-04-21T22:04:17.038Z,2.99
2019-04-21T22:06:47.262Z,2.99
2019-04-21T22:09:26.242Z,2.97
2019-04-21T22:12:44.832Z,2.98
2019-04-21T22:18:16.760Z,2.99
2019-04-21T22:20:43.237Z,2.99
2019-04-21T22:23:02.230Z,3.00
2019-04-21T22:25:45.681Z,2.98
2019-04-21T22:28:13.707Z,2.99
2019-04-21T22:36:18.259Z,3.00
2019-04-21T22:38:50.965Z,3.00
2019-04-21T22:41:13.002Z,3.00
2019-04-21T22:43:37.674Z,2.98
2019-04-21T22:46:14.029Z,2.96
2019-04-21T22:48:40.907Z,2.95
2019-04-21T22:51:19.296Z,2.93
2019-04-21T22:53:44.771Z,2.93
2019-04-21T22:56:30.095Z,2.93
2019-04-21T22:58:53.151Z,2.92
2019-04-21T23:01:27.800Z,2.90
2019-04-21T23:03:54.693Z,2.89
2019-04-21T23:06:21.371Z,2.89
2019-04-21T23:08:45.737Z,2.86
2019-04-21T23:11:14.142Z,2.83
2019-04-21T23:13:40.363Z,2.81
2019-04-21T23:16:08.480Z,2.81
2019-04-21T23:18:48.000Z,2.81
2019-04-21T23:21:17.382Z,2.80
2019-04-21T23:24:16.078Z,2.79
2019-04-21T23:27:07.920Z,2.79
2019-04-21T23:29:47.573Z,2.76
2019-04-21T23:32:06.351Z,2.74
2019-04-21T23:34:25.087Z,2.72
2019-04-21T23:36:54.369Z,2.68
2019-04-21T23:39:22.727Z,2.65
2019-04-21T23:41:47.934Z,2.63
2019-04-21T23:44:13.692Z,2.60
2019-04-21T23:46:40.907Z,2.57
2019-04-21T23:49:23.133Z,2.55
2019-04-21T23:52:04.248Z,2.54
2019-04-21T23:54:29.587Z,2.53
2019-04-21T23:56:55.964Z,2.55
2019-04-21T23:59:22.579Z,2.53
